createdAt,value
2018-09-30T00:01:34.641Z,8.53
2018-09-30T00:04:03.857Z,8.20
2018-09-30T00:06:32.933Z,8.18
2018-09-30T00:09:02.013Z,8.17
2018-09-30T00:11:31.124Z,8.11
2018-09-30T00:14:00.313Z,7.91
2018-09-30T00:16:29.376Z,7.88
2018-09-30T00:18:58.567Z,7.86
2018-09-30T00:21:27.704Z,7.94
2018-09-30T00:24:02.100Z,7.99
2018-09-30T00:26:36.547Z,7.87
2018-09-30T00:29:05.645Z,7.97
2018-09-30T00:31:34.890Z,7.76
2018-09-30T00:34:09.256Z,7.82
2018-09-30T00:36:38.362Z,7.73
2018-09-30T00:39:07.702Z,7.79
2018-09-30T00:41:36.863Z,7.85
2018-09-30T00:44:05.945Z,7.74
2018-09-30T00:46:35.012Z,7.49
2018-09-30T00:49:04.271Z,7.81
2018-09-30T00:51:33.452Z,7.72
2018-09-30T00:54:02.673Z,7.45
2018-09-30T00:56:31.861Z,7.45
2018-09-30T00:59:00.933Z,7.45
2018-09-30T01:01:30.027Z,7.26
2018-09-30T01:03:59.165Z,7.30
2018-09-30T01:06:28.226Z,7.28
2018-09-30T01:08:57.297Z,7.27
2018-09-30T01:11:26.446Z,7.29
2018-09-30T01:13:55.593Z,7.09
2018-09-30T01:16:24.690Z,7.16
2018-09-30T01:18:53.840Z,7.03
2018-09-30T01:21:22.984Z,7.06
2018-09-30T01:23:52.059Z,6.98
2018-09-30T01:26:21.184Z,6.93
2018-09-30T01:28:50.282Z,6.74
2018-09-30T01:31:19.419Z,6.71
2018-09-30T01:33:48.577Z,6.66
2018-09-30T01:36:17.702Z,6.72
2018-09-30T01:38:46.806Z,6.74
2018-09-30T01:41:16.016Z,6.79
2018-09-30T01:43:45.148Z,6.71
2018-09-30T01:46:15.156Z,6.63
2018-09-30T01:48:44.236Z,6.43
2018-09-30T01:51:13.308Z,6.35
2018-09-30T01:53:42.362Z,6.50
2018-09-30T01:56:11.440Z,6.64
2018-09-30T01:58:40.669Z,6.57
2018-09-30T02:01:09.732Z,6.49
2018-09-30T02:03:38.893Z,6.37
2018-09-30T02:06:07.952Z,6.48
2018-09-30T02:08:37.104Z,6.42
2018-09-30T02:11:06.256Z,6.22
2018-09-30T02:13:35.373Z,6.44
2018-09-30T02:16:04.446Z,6.38
2018-09-30T02:18:33.819Z,6.38
2018-09-30T02:21:02.903Z,6.15
2018-09-30T02:23:32.012Z,6.28
2018-09-30T02:26:01.108Z,6.22
2018-09-30T02:28:30.235Z,6.22
2018-09-30T02:30:59.389Z,6.27
2018-09-30T02:33:28.516Z,6.24
2018-09-30T02:35:57.565Z,6.21
2018-09-30T02:38:26.783Z,5.97
2018-09-30T02:40:55.849Z,6.17
2018-09-30T02:43:24.908Z,6.18
2018-09-30T02:45:54.072Z,6.17
2018-09-30T02:48:23.143Z,6.12
2018-09-30T02:50:52.201Z,6.15
2018-09-30T02:53:21.373Z,5.89
2018-09-30T02:55:50.445Z,6.05
2018-09-30T02:58:19.656Z,5.98
2018-09-30T03:00:48.725Z,5.94
2018-09-30T03:03:17.956Z,6.03
2018-09-30T03:05:47.081Z,5.91
2018-09-30T03:08:21.501Z,5.83
2018-09-30T03:10:50.660Z,5.86
2018-09-30T03:13:19.848Z,5.77
2018-09-30T03:15:48.913Z,5.85
2018-09-30T03:18:17.964Z,5.89
2018-09-30T03:20:47.024Z,5.81
2018-09-30T03:23:16.101Z,5.88
2018-09-30T03:25:45.165Z,5.69
2018-09-30T03:28:14.310Z,5.64
2018-09-30T03:30:43.464Z,5.69
2018-09-30T03:33:12.558Z,5.85
2018-09-30T03:35:41.612Z,5.75
2018-09-30T03:38:10.759Z,5.81
2018-09-30T03:40:39.816Z,5.70
2018-09-30T03:43:08.896Z,5.79
2018-09-30T03:45:38.008Z,5.69
2018-09-30T03:48:07.175Z,5.60
2018-09-30T03:50:36.239Z,5.69
2018-09-30T03:53:05.384Z,5.87
2018-09-30T03:55:34.461Z,5.76
2018-09-30T03:58:03.673Z,5.72
2018-09-30T04:00:32.757Z,5.72
2018-09-30T04:03:01.916Z,5.88
2018-09-30T04:05:30.989Z,5.71
2018-09-30T04:08:00.078Z,5.68
2018-09-30T04:10:29.134Z,5.79
2018-09-30T04:12:58.291Z,5.72
2018-09-30T04:15:27.390Z,5.65
2018-09-30T04:17:56.450Z,5.68
2018-09-30T04:20:25.533Z,5.58
2018-09-30T04:22:54.633Z,5.48
2018-09-30T04:25:23.825Z,5.66
2018-09-30T04:27:52.908Z,5.59
2018-09-30T04:30:21.997Z,5.63
2018-09-30T04:32:51.100Z,5.60
2018-09-30T04:35:20.184Z,5.46
2018-09-30T04:37:49.391Z,5.56
2018-09-30T04:40:18.447Z,5.52
2018-09-30T04:42:47.500Z,5.90
2018-09-30T04:45:16.588Z,5.97
2018-09-30T04:47:45.668Z,6.23
2018-09-30T04:50:14.708Z,5.99
2018-09-30T04:52:43.786Z,6.13
2018-09-30T04:55:12.862Z,6.13
2018-09-30T04:57:41.991Z,6.16
2018-09-30T05:00:11.106Z,6.19
2018-09-30T05:02:40.352Z,5.75
2018-09-30T05:05:09.443Z,5.59
2018-09-30T05:07:38.554Z,5.67
2018-09-30T05:10:07.661Z,5.71
2018-09-30T05:12:36.838Z,5.76
2018-09-30T05:15:05.961Z,5.81
2018-09-30T05:17:35.073Z,5.75
2018-09-30T05:20:04.243Z,5.80
2018-09-30T05:22:33.315Z,5.74
2018-09-30T05:25:02.385Z,5.74
2018-09-30T05:27:31.649Z,5.75
2018-09-30T05:30:00.746Z,5.86
2018-09-30T05:32:29.884Z,5.75
2018-09-30T05:34:58.996Z,5.89
2018-09-30T05:37:28.072Z,5.86
2018-09-30T05:39:57.230Z,5.85
2018-09-30T05:42:26.298Z,5.89
2018-09-30T05:44:55.384Z,6.00
2018-09-30T05:47:24.569Z,6.02
2018-09-30T05:49:53.634Z,6.29
2018-09-30T05:52:22.777Z,6.21
2018-09-30T05:54:51.842Z,6.31
2018-09-30T05:57:20.940Z,6.16
2018-09-30T05:59:50.152Z,6.19
2018-09-30T06:02:19.236Z,6.16
2018-09-30T06:04:48.334Z,6.11
2018-09-30T06:07:17.492Z,6.17
2018-09-30T06:09:46.587Z,6.35
2018-09-30T06:12:15.676Z,6.39
2018-09-30T06:14:44.836Z,6.37
2018-09-30T06:17:13.927Z,6.40
2018-09-30T06:19:43.092Z,6.54
2018-09-30T06:22:12.217Z,6.66
2018-09-30T06:24:41.344Z,6.82
2018-09-30T06:27:10.505Z,6.89
2018-09-30T06:29:39.575Z,6.83
2018-09-30T06:32:08.684Z,6.94
2018-09-30T06:34:37.810Z,7.01
2018-09-30T06:37:06.958Z,7.09
2018-09-30T06:39:36.003Z,7.21
2018-09-30T06:42:05.189Z,7.35
2018-09-30T06:44:34.397Z,7.39
2018-09-30T06:47:03.620Z,7.56
2018-09-30T06:49:32.729Z,7.67
2018-09-30T06:52:01.893Z,7.87
2018-09-30T06:54:31.324Z,7.91
2018-09-30T06:57:00.620Z,7.99
2018-09-30T06:59:29.718Z,8.09
2018-09-30T07:01:58.808Z,8.19
2018-09-30T07:04:27.887Z,8.29
2018-09-30T07:06:57.013Z,8.34
2018-09-30T07:09:26.081Z,8.39
2018-09-30T07:11:55.144Z,8.63
2018-09-30T07:14:24.375Z,8.61
2018-09-30T07:16:53.465Z,8.71
2018-09-30T07:19:22.594Z,9.12
2018-09-30T07:21:51.696Z,9.16
2018-09-30T07:24:20.881Z,9.34
2018-09-30T07:26:50.016Z,9.22
2018-09-30T07:29:19.115Z,9.35
2018-09-30T07:31:48.268Z,9.33
2018-09-30T07:34:17.400Z,9.40
2018-09-30T07:36:46.503Z,9.41
2018-09-30T07:39:15.614Z,9.39
2018-09-30T07:41:44.732Z,9.66
2018-09-30T07:44:13.836Z,9.68
2018-09-30T07:46:43.035Z,9.82
2018-09-30T07:49:12.115Z,9.94
2018-09-30T07:51:41.224Z,9.93
2018-09-30T07:54:10.303Z,9.96
2018-09-30T07:56:39.378Z,10.06
2018-09-30T07:59:08.736Z,10.26
2018-09-30T08:01:37.859Z,10.28
2018-09-30T08:04:07.163Z,10.32
2018-09-30T08:06:36.375Z,10.42
2018-09-30T08:09:07.565Z,10.52
2018-09-30T08:11:36.740Z,10.73
2018-09-30T08:14:05.960Z,10.75
2018-09-30T08:16:35.140Z,10.85
2018-09-30T08:19:04.215Z,10.97
2018-09-30T08:21:33.411Z,10.98
2018-09-30T08:24:02.634Z,11.10
2018-09-30T08:26:31.793Z,11.16
2018-09-30T08:29:00.998Z,11.18
2018-09-30T08:31:30.111Z,11.34
2018-09-30T08:33:59.637Z,11.41
2018-09-30T08:36:28.789Z,11.65
2018-09-30T08:38:57.978Z,11.69
2018-09-30T08:41:27.068Z,11.65
2018-09-30T08:43:56.318Z,11.82
2018-09-30T08:46:25.389Z,11.91
2018-09-30T08:48:54.516Z,11.75
2018-09-30T08:51:24.021Z,11.89
2018-09-30T08:53:53.138Z,12.14
2018-09-30T08:56:22.277Z,12.25
2018-09-30T08:58:51.489Z,12.17
2018-09-30T09:01:20.657Z,12.37
2018-09-30T09:03:49.757Z,12.25
2018-09-30T09:06:18.876Z,12.33
2018-09-30T09:08:47.998Z,12.32
2018-09-30T09:11:17.092Z,12.47
2018-09-30T09:13:46.240Z,12.61
2018-09-30T09:16:15.340Z,12.65
2018-09-30T09:18:44.449Z,12.81
2018-09-30T09:21:13.657Z,12.86
2018-09-30T09:23:42.750Z,12.88
2018-09-30T09:26:11.950Z,12.97
2018-09-30T09:28:41.040Z,13.11
2018-09-30T09:31:10.168Z,13.20
2018-09-30T09:33:39.253Z,13.43
2018-09-30T09:36:08.412Z,13.57
2018-09-30T09:38:37.515Z,13.47
2018-09-30T09:41:06.606Z,13.53
2018-09-30T09:43:35.792Z,13.61
2018-09-30T09:46:05.003Z,13.66
2018-09-30T09:48:34.094Z,13.66
2018-09-30T09:51:03.659Z,13.91
2018-09-30T09:53:32.828Z,14.05
2018-09-30T09:56:01.916Z,13.99
2018-09-30T09:58:31.115Z,14.26
2018-09-30T10:01:04.431Z,14.20
2018-09-30T10:03:33.531Z,14.25
2018-09-30T10:06:02.747Z,14.42
2018-09-30T10:08:31.866Z,14.58
2018-09-30T10:11:00.977Z,14.47
2018-09-30T10:13:30.092Z,14.56
2018-09-30T10:15:59.345Z,14.61
2018-09-30T10:18:28.559Z,14.62
2018-09-30T10:20:57.651Z,14.85
2018-09-30T10:23:26.739Z,14.88
2018-09-30T10:25:56.034Z,14.78
2018-09-30T10:28:25.153Z,14.83
2018-09-30T10:30:54.325Z,15.23
2018-09-30T10:33:23.503Z,15.20
2018-09-30T10:35:52.597Z,15.19
2018-09-30T10:38:21.779Z,15.50
2018-09-30T10:40:51.014Z,15.25
2018-09-30T10:43:20.108Z,15.52
2018-09-30T10:45:49.311Z,15.58
2018-09-30T10:48:18.415Z,15.65
2018-09-30T10:50:47.512Z,15.88
2018-09-30T10:53:16.602Z,15.97
2018-09-30T10:55:45.700Z,16.25
2018-09-30T10:58:14.864Z,16.21
2018-09-30T11:00:43.928Z,16.20
2018-09-30T11:03:13.100Z,16.55
2018-09-30T11:05:42.232Z,16.95
2018-09-30T11:08:11.342Z,17.22
2018-09-30T11:10:40.465Z,17.43
2018-09-30T11:13:09.569Z,17.51
2018-09-30T11:15:38.775Z,17.46
2018-09-30T11:18:07.985Z,17.79
2018-09-30T11:20:37.164Z,17.70
2018-09-30T11:23:06.279Z,18.18
2018-09-30T11:25:35.467Z,18.05
2018-09-30T11:28:04.644Z,19.40
2018-09-30T11:30:33.751Z,18.89
2018-09-30T11:33:02.863Z,18.66
2018-09-30T11:35:31.951Z,19.49
2018-09-30T11:38:01.139Z,19.72
2018-09-30T11:40:30.346Z,20.77
2018-09-30T11:42:59.561Z,22.15
2018-09-30T11:45:28.735Z,23.33
2018-09-30T11:47:57.939Z,24.24
2018-09-30T11:50:27.113Z,25.11
2018-09-30T11:52:56.196Z,25.36
2018-09-30T11:55:25.329Z,26.39
2018-09-30T11:57:54.414Z,26.33
2018-09-30T12:00:23.504Z,25.00
2018-09-30T12:02:52.605Z,24.53
2018-09-30T12:05:21.737Z,24.81
2018-09-30T12:07:50.985Z,25.35
2018-09-30T12:10:20.066Z,25.28
2018-09-30T12:12:49.189Z,24.82
2018-09-30T12:15:18.380Z,26.55
2018-09-30T12:17:47.592Z,27.21
2018-09-30T12:20:16.676Z,26.94
2018-09-30T12:22:45.764Z,28.80
2018-09-30T12:25:14.984Z,28.19
2018-09-30T12:27:44.069Z,26.69
2018-09-30T12:30:13.160Z,28.37
2018-09-30T12:32:42.290Z,28.81
2018-09-30T12:35:11.459Z,26.37
2018-09-30T12:37:40.727Z,26.44
2018-09-30T12:40:09.903Z,28.06
2018-09-30T12:42:39.032Z,28.71
2018-09-30T12:45:08.143Z,27.58
2018-09-30T12:47:37.243Z,27.98
2018-09-30T12:50:06.369Z,28.82
2018-09-30T12:52:35.536Z,28.88
2018-09-30T12:55:04.777Z,28.67
2018-09-30T12:57:33.925Z,28.60
2018-09-30T13:00:03.043Z,28.24
2018-09-30T13:02:32.260Z,30.18
2018-09-30T13:05:01.345Z,28.38
2018-09-30T13:07:30.583Z,29.40
2018-09-30T13:09:59.812Z,26.91
2018-09-30T13:12:28.892Z,30.04
2018-09-30T13:14:57.983Z,30.03
2018-09-30T13:17:27.261Z,29.65
2018-09-30T13:19:56.501Z,29.33
2018-09-30T13:22:25.558Z,29.79
2018-09-30T13:24:54.746Z,30.46
2018-09-30T13:27:23.872Z,29.02
2018-09-30T13:29:52.987Z,30.26
2018-09-30T13:32:22.134Z,30.75
2018-09-30T13:34:51.264Z,30.32
2018-09-30T13:37:20.596Z,30.29
2018-09-30T13:39:49.957Z,28.67
2018-09-30T13:42:19.274Z,29.65
2018-09-30T13:44:48.353Z,30.97
2018-09-30T13:47:17.468Z,30.35
2018-09-30T13:49:46.574Z,29.73
2018-09-30T13:52:15.748Z,30.55
2018-09-30T13:54:44.811Z,30.25
2018-09-30T13:57:13.988Z,31.05
2018-09-30T13:59:43.155Z,31.08
2018-09-30T14:02:12.238Z,31.51
2018-09-30T14:04:41.349Z,31.02
2018-09-30T14:07:10.543Z,31.05
2018-09-30T14:09:39.653Z,29.28
2018-09-30T14:12:08.827Z,30.47
2018-09-30T14:14:38.029Z,29.77
2018-09-30T14:17:07.272Z,29.24
2018-09-30T14:19:36.340Z,30.51
2018-09-30T14:22:05.531Z,30.17
2018-09-30T14:24:34.741Z,30.46
2018-09-30T14:27:03.913Z,30.82
2018-09-30T14:29:32.901Z,31.09
2018-09-30T14:32:02.535Z,30.70
2018-09-30T14:34:31.799Z,30.87
2018-09-30T14:37:00.908Z,31.06
2018-09-30T14:39:30.000Z,30.99
2018-09-30T14:41:59.251Z,30.47
2018-09-30T14:44:28.324Z,30.93
2018-09-30T14:46:57.528Z,28.86
2018-09-30T14:49:26.632Z,28.81
2018-09-30T14:51:55.708Z,29.39
2018-09-30T14:54:24.836Z,30.11
2018-09-30T14:56:53.965Z,29.87
2018-09-30T14:59:23.032Z,29.88
2018-09-30T15:01:52.296Z,29.77
2018-09-30T15:04:21.492Z,29.58
2018-09-30T15:06:50.660Z,27.71
2018-09-30T15:09:19.900Z,27.92
2018-09-30T15:11:49.150Z,28.17
2018-09-30T15:14:18.557Z,28.55
2018-09-30T15:16:47.700Z,27.49
2018-09-30T15:19:16.859Z,28.42
2018-09-30T15:21:46.088Z,27.72
2018-09-30T15:24:15.341Z,28.15
2018-09-30T15:26:44.492Z,27.06
2018-09-30T15:29:13.578Z,26.69
2018-09-30T15:31:42.675Z,27.60
2018-09-30T15:34:11.763Z,27.79
2018-09-30T15:36:40.851Z,27.82
2018-09-30T15:39:11.820Z,26.86
2018-09-30T15:41:41.315Z,26.69
2018-09-30T15:44:11.564Z,26.73
2018-09-30T15:46:40.682Z,26.50
2018-09-30T15:49:09.910Z,26.38
2018-09-30T15:51:39.120Z,25.66
2018-09-30T15:54:08.481Z,25.56
2018-09-30T15:56:37.648Z,25.08
2018-09-30T15:59:06.797Z,24.91
2018-09-30T16:01:35.892Z,24.08
2018-09-30T16:04:04.984Z,23.30
2018-09-30T16:06:34.062Z,22.45
2018-09-30T16:09:03.455Z,22.42
2018-09-30T16:11:32.532Z,22.24
2018-09-30T16:14:01.754Z,21.87
2018-09-30T16:16:30.862Z,21.57
2018-09-30T16:18:59.968Z,21.04
2018-09-30T16:21:29.123Z,20.89
2018-09-30T16:23:58.158Z,20.74
2018-09-30T16:26:27.373Z,20.52
2018-09-30T16:28:56.491Z,20.15
2018-09-30T16:31:25.572Z,20.03
2018-09-30T16:33:54.693Z,19.90
2018-09-30T16:36:23.825Z,19.93
2018-09-30T16:38:53.093Z,19.66
2018-09-30T16:41:22.251Z,19.52
2018-09-30T16:43:51.433Z,19.26
2018-09-30T16:46:20.625Z,18.91
2018-09-30T16:48:50.341Z,19.02
2018-09-30T16:51:19.543Z,19.04
2018-09-30T16:53:48.725Z,18.81
2018-09-30T16:56:17.818Z,18.74
2018-09-30T16:58:46.929Z,18.61
2018-09-30T17:01:16.033Z,18.47
2018-09-30T17:03:45.220Z,18.35
2018-09-30T17:06:14.595Z,18.20
2018-09-30T17:08:43.830Z,18.01
2018-09-30T17:11:12.989Z,17.93
2018-09-30T17:13:42.109Z,17.86
2018-09-30T17:16:11.367Z,17.74
2018-09-30T17:18:40.516Z,17.53
2018-09-30T17:21:09.621Z,17.58
2018-09-30T17:23:38.817Z,17.42
2018-09-30T17:26:07.940Z,17.28
2018-09-30T17:28:37.240Z,17.18
2018-09-30T17:31:06.581Z,17.21
2018-09-30T17:33:35.695Z,17.04
2018-09-30T17:36:04.805Z,16.98
2018-09-30T17:38:33.987Z,16.81
2018-09-30T17:41:03.171Z,16.85
2018-09-30T17:43:32.387Z,16.61
2018-09-30T17:46:01.563Z,16.41
2018-09-30T17:48:30.675Z,16.51
2018-09-30T17:50:59.861Z,16.42
2018-09-30T17:53:28.987Z,16.48
2018-09-30T17:55:58.199Z,16.18
2018-09-30T17:58:27.335Z,16.19
2018-09-30T18:00:56.435Z,16.07
2018-09-30T18:03:25.551Z,15.94
2018-09-30T18:05:54.649Z,16.09
2018-09-30T18:08:23.840Z,16.11
2018-09-30T18:10:52.947Z,16.01
2018-09-30T18:13:22.047Z,15.77
2018-09-30T18:15:51.137Z,15.60
2018-09-30T18:18:20.449Z,15.67
2018-09-30T18:20:49.611Z,15.74
2018-09-30T18:23:18.705Z,15.61
2018-09-30T18:25:47.797Z,15.56
2018-09-30T18:28:16.899Z,15.50
2018-09-30T18:30:46.010Z,15.49
2018-09-30T18:33:15.097Z,15.29
2018-09-30T18:35:44.200Z,15.22
2018-09-30T18:38:13.293Z,15.23
2018-09-30T18:40:47.401Z,15.41
2018-09-30T18:43:16.602Z,15.29
2018-09-30T18:45:45.899Z,15.20
2018-09-30T18:48:14.981Z,15.09
2018-09-30T18:50:44.189Z,15.13
2018-09-30T18:53:13.401Z,14.93
2018-09-30T18:55:42.600Z,14.95
2018-09-30T18:58:11.705Z,14.91
2018-09-30T19:00:40.878Z,14.88
2018-09-30T19:03:10.015Z,14.67
2018-09-30T19:05:39.201Z,14.86
2018-09-30T19:08:08.369Z,14.75
2018-09-30T19:10:37.553Z,14.67
2018-09-30T19:13:06.653Z,14.67
2018-09-30T19:15:35.753Z,14.53
2018-09-30T19:18:04.937Z,14.54
2018-09-30T19:20:33.996Z,14.55
2018-09-30T19:23:03.153Z,14.48
2018-09-30T19:25:32.356Z,14.47
2018-09-30T19:28:01.566Z,14.47
2018-09-30T19:30:30.822Z,14.40
2018-09-30T19:32:59.942Z,14.42
2018-09-30T19:35:29.068Z,14.46
2018-09-30T19:37:58.272Z,14.51
2018-09-30T19:40:27.359Z,14.36
2018-09-30T19:42:56.502Z,14.26
2018-09-30T19:45:25.596Z,14.18
2018-09-30T19:47:54.700Z,14.17
2018-09-30T19:50:23.804Z,14.20
2018-09-30T19:52:52.962Z,14.08
2018-09-30T19:55:22.043Z,14.03
2018-09-30T19:57:51.203Z,14.02
2018-09-30T20:00:20.303Z,14.01
2018-09-30T20:02:49.409Z,13.98
2018-09-30T20:05:18.512Z,13.85
2018-09-30T20:07:47.715Z,13.95
2018-09-30T20:10:16.883Z,13.92
2018-09-30T20:12:46.100Z,13.79
2018-09-30T20:15:15.212Z,13.69
2018-09-30T20:17:44.386Z,13.69
2018-09-30T20:20:13.583Z,13.74
2018-09-30T20:22:42.783Z,13.73
2018-09-30T20:25:11.869Z,13.75
2018-09-30T20:27:41.095Z,13.66
2018-09-30T20:30:10.261Z,13.70
2018-09-30T20:32:39.369Z,13.54
2018-09-30T20:35:09.039Z,13.56
2018-09-30T20:37:38.144Z,13.52
2018-09-30T20:40:07.519Z,13.66
2018-09-30T20:42:36.632Z,13.70
2018-09-30T20:45:05.845Z,13.71
2018-09-30T20:47:35.200Z,13.54
2018-09-30T20:50:04.418Z,13.59
2018-09-30T20:52:33.532Z,13.55
2018-09-30T20:55:02.684Z,13.55
2018-09-30T20:57:31.828Z,13.51
2018-09-30T21:00:00.956Z,13.61
2018-09-30T21:02:30.120Z,13.72
2018-09-30T21:05:02.481Z,13.86
2018-09-30T21:07:31.589Z,13.96
2018-09-30T21:10:00.830Z,14.11
2018-09-30T21:12:29.927Z,14.18
2018-09-30T21:18:08.912Z,14.20
2018-09-30T21:20:38.032Z,14.13
2018-09-30T21:23:07.139Z,14.00
2018-09-30T21:25:36.255Z,14.00
2018-09-30T21:28:05.584Z,14.17
2018-09-30T21:30:34.764Z,14.14
2018-09-30T21:33:03.983Z,14.12
2018-09-30T21:35:33.143Z,14.07
2018-09-30T21:38:02.381Z,13.99
2018-09-30T21:40:31.539Z,14.06
2018-09-30T21:43:00.679Z,14.21
2018-09-30T21:45:29.789Z,14.19
2018-09-30T21:47:58.953Z,14.18
2018-09-30T21:50:28.052Z,14.16
2018-09-30T21:52:57.161Z,14.13
2018-09-30T21:55:26.329Z,14.03
2018-09-30T21:57:55.515Z,13.93
2018-09-30T22:00:29.964Z,13.96
2018-09-30T22:02:59.084Z,13.90
2018-09-30T22:05:28.199Z,13.86
2018-09-30T22:07:57.347Z,13.77
2018-09-30T22:10:26.544Z,13.84
2018-09-30T22:12:55.933Z,13.98
2018-09-30T22:15:25.040Z,13.98
2018-09-30T22:17:54.179Z,13.89
2018-09-30T22:20:23.676Z,13.74
2018-09-30T22:22:52.815Z,13.80
2018-09-30T22:25:21.911Z,13.82
2018-09-30T22:27:51.967Z,13.75
2018-09-30T22:30:21.088Z,13.80
2018-09-30T22:32:50.203Z,13.74
2018-09-30T22:35:19.720Z,13.92
2018-09-30T22:37:48.840Z,13.79
2018-09-30T22:40:18.157Z,13.84
2018-09-30T22:42:47.148Z,13.86
2018-09-30T22:45:16.249Z,13.87
2018-09-30T22:47:45.448Z,13.93
2018-09-30T22:50:14.565Z,13.97
2018-09-30T22:52:43.654Z,13.99
2018-09-30T22:55:12.821Z,13.88
2018-09-30T22:57:42.012Z,13.74
2018-09-30T23:00:11.134Z,13.77
2018-09-30T23:02:40.311Z,13.81
2018-09-30T23:05:10.208Z,13.90
2018-09-30T23:07:39.356Z,13.98
2018-09-30T23:10:10.513Z,13.94
2018-09-30T23:12:39.612Z,13.85
2018-09-30T23:15:08.856Z,13.82
2018-09-30T23:17:37.956Z,13.78
2018-09-30T23:20:11.989Z,13.77
2018-09-30T23:22:41.076Z,13.82
2018-09-30T23:25:10.344Z,13.61
2018-09-30T23:27:39.512Z,13.75
2018-09-30T23:30:08.808Z,13.83
2018-09-30T23:32:38.500Z,13.88
2018-09-30T23:35:07.765Z,13.66
2018-09-30T23:37:36.892Z,13.64
2018-09-30T23:40:06.518Z,13.70
2018-09-30T23:42:35.992Z,13.69
2018-09-30T23:45:05.725Z,13.78
2018-09-30T23:47:34.966Z,13.79
2018-09-30T23:50:04.188Z,13.89
2018-09-30T23:52:33.332Z,13.98
2018-09-30T23:55:02.464Z,14.11
2018-09-30T23:57:31.548Z,14.09
